Madison, South Carolina
Current Conditions -  °F | °C
As of 4:15 AM on Monday 20 Oct 2014 (Local Time) from KTOC Reporting Station
Clear Clear  
Wind Chill: 48°   Ceiling: Unl
Heat Index: 48°   Visibility: 10mi
Dew Point: 47°   Wind: 3mph
Humidity: 96%   Direction: 360°N
Pressure: 30.11"   Gusts: NA
Location:  34.655°N, 83.1402°W
Report Text: KTOC 200815Z AUTO 36003KT 10SM CLR 09/08 A3011 RMK AO2 T00880082
Loading
Personal Weather Stations






























Interactive Weather Map
Tropical Storm Tracking
New forecast layout! Learn more

10-Day Weather Forecast

Advertisements
Track Severe Weather on mobile